Time;durP1;ratioP1;P1;durP2;ratioP2;P2;SDS_P1;SDS_P2;PMS_P1;PMS_P2;Temp;Humidity;BMP_temperature;BMP_pressure;BME280_temperature;BME280_humidity;BME280_pressure;Samples;Min_cycle;Max_cycle;Signal;HPM_P1;HPM_P2
2023/12/04 00:00:51;;;;;;;28.10;18.90;;;;;;;-1.49;91.14;100816.16;107177;281;154940;-52
2023/12/04 00:03:56;;;;;;;29.50;19.90;;;;;;;-1.53;91.20;100815.75;107353;281;120266;-57
2023/12/04 00:06:38;;;;;;;28.90;17.80;;;;;;;-1.50;91.21;100818.05;107241;280;156302;-57
2023/12/04 00:09:17;;;;;;;29.40;18.40;;;;;;;-1.51;91.27;100817.87;107347;280;114402;-50
2023/12/04 00:11:54;;;;;;;27.40;18.40;;;;;;;-1.48;91.40;100821.06;107204;281;155210;-50
2023/12/04 00:14:33;;;;;;;29.90;19.70;;;;;;;-1.44;91.28;100821.99;107259;281;95493;-52
2023/12/04 00:17:09;;;;;;;28.10;18.70;;;;;;;-1.42;91.34;100822.60;107373;281;118859;-52
2023/12/04 00:19:49;;;;;;;30.50;19.90;;;;;;;-1.41;91.45;100828.39;107294;281;105377;-53
2023/12/04 00:22:29;;;;;;;29.20;19.00;;;;;;;-1.40;91.44;100824.95;107373;281;113504;-52
2023/12/04 00:25:09;;;;;;;29.60;19.20;;;;;;;-1.38;91.35;100825.50;107142;277;156138;-55
2023/12/04 00:27:43;;;;;;;30.20;18.90;;;;;;;-1.34;91.42;100829.14;107397;281;96986;-55
2023/12/04 00:30:26;;;;;;;30.10;20.20;;;;;;;-1.33;91.44;100832.58;107204;281;156134;-52
2023/12/04 00:33:03;;;;;;;28.90;20.20;;;;;;;-1.31;91.46;100834.17;107353;281;105046;-52
2023/12/04 00:35:42;;;;;;;31.80;20.80;;;;;;;-1.30;91.53;100836.41;107222;281;155329;-54
2023/12/04 00:38:21;;;;;;;32.80;20.50;;;;;;;-1.26;91.45;100839.55;107129;279;95682;-54
2023/12/04 00:40:59;;;;;;;32.60;21.50;;;;;;;-1.32;91.52;100839.03;107363;281;98289;-55
2023/12/04 00:43:36;;;;;;;31.20;21.80;;;;;;;-1.32;91.62;100836.08;107197;280;154741;-53
2023/12/04 00:46:14;;;;;;;31.60;20.90;;;;;;;-1.30;91.62;100843.70;107286;274;104407;-53
2023/12/04 00:48:57;;;;;;;29.50;19.80;;;;;;;-1.31;91.69;100842.16;107239;280;154941;-54
2023/12/04 00:59:44;;;;;;;32.40;21.40;;;;;;;-1.22;91.87;100853.05;107342;281;120547;-51
2023/12/04 01:02:30;;;;;;;31.30;21.10;;;;;;;-1.19;91.89;100852.10;107404;281;104360;-51
2023/12/04 01:05:07;;;;;;;30.10;20.20;;;;;;;-1.18;91.88;100855.58;107351;281;114374;-56
2023/12/04 01:07:54;;;;;;;31.00;20.20;;;;;;;-1.16;91.83;100858.83;107230;281;154409;-56
2023/12/04 01:10:32;;;;;;;31.00;20.50;;;;;;;-1.17;91.87;100855.34;107337;281;96904;-54
2023/12/04 01:13:10;;;;;;;30.90;20.90;;;;;;;-1.19;91.96;100854.76;107191;281;154597;-55
2023/12/04 01:15:50;;;;;;;32.20;21.40;;;;;;;-1.19;91.89;100855.13;107396;281;103603;-52
2023/12/04 01:18:29;;;;;;;31.10;21.00;;;;;;;-1.17;91.86;100858.39;107223;281;155690;-51
2023/12/04 01:21:06;;;;;;;31.70;19.90;;;;;;;-1.21;91.90;100857.68;107335;281;92988;-55
2023/12/04 01:23:43;;;;;;;29.90;20.20;;;;;;;-1.21;91.95;100858.44;107256;281;155088;-54
2023/12/04 01:26:24;;;;;;;26.60;19.10;;;;;;;-1.19;91.87;100859.70;107365;281;120981;-54
2023/12/04 01:29:03;;;;;;;26.90;19.20;;;;;;;-1.17;91.96;100856.77;107252;281;105443;-51
2023/12/04 01:31:47;;;;;;;27.20;18.10;;;;;;;-1.16;91.97;100861.33;107210;281;155025;-51
2023/12/04 01:34:27;;;;;;;26.30;19.40;;;;;;;-1.17;92.04;100867.02;107347;281;95123;-57
2023/12/04 01:37:07;;;;;;;28.30;18.40;;;;;;;-1.17;91.91;100865.09;107219;281;154898;-58
2023/12/04 01:39:46;;;;;;;26.40;18.40;;;;;;;-1.14;91.96;100865.54;107365;281;121166;-54
2023/12/04 01:42:22;;;;;;;25.20;16.20;;;;;;;-1.08;91.76;100859.67;107232;281;155451;-54
2023/12/04 01:45:00;;;;;;;19.40;14.60;;;;;;;-1.04;91.65;100855.70;107399;281;114237;-53
2023/12/04 01:47:43;;;;;;;22.70;16.30;;;;;;;-1.03;91.57;100869.22;107252;281;154670;-53
2023/12/04 01:50:21;;;;;;;20.40;14.90;;;;;;;-1.08;91.61;100882.13;107270;281;97072;-53
2023/12/04 01:52:58;;;;;;;22.30;15.60;;;;;;;-1.18;91.76;100888.29;107363;281;119611;-54
2023/12/04 01:55:38;;;;;;;19.30;14.00;;;;;;;-1.22;91.67;100899.45;107222;280;155095;-51
2023/12/04 01:58:14;;;;;;;20.60;14.70;;;;;;;-1.21;91.64;100899.60;107380;280;114484;-51
2023/12/04 02:00:53;;;;;;;19.30;14.60;;;;;;;-1.25;91.61;100906.77;107227;280;156171;-53
2023/12/04 02:03:32;;;;;;;18.10;13.30;;;;;;;-1.23;91.62;100909.98;107352;280;98216;-53
2023/12/04 02:06:10;;;;;;;19.60;14.00;;;;;;;-1.26;91.66;100912.66;107207;280;155075;-56
2023/12/04 02:08:50;;;;;;;18.20;13.70;;;;;;;-1.26;91.80;100915.63;107370;280;105590;-57
2023/12/04 02:11:32;;;;;;;17.20;12.90;;;;;;;-1.24;91.82;100910.73;107223;280;156214;-56
2023/12/04 02:14:12;;;;;;;17.90;12.40;;;;;;;-1.23;91.87;100910.13;107342;280;95194;-56
2023/12/04 02:16:51;;;;;;;18.60;13.50;;;;;;;-1.23;91.77;100904.52;107424;280;97443;-56
2023/12/04 02:19:31;;;;;;;16.00;12.90;;;;;;;-1.23;91.73;100901.11;107200;280;154870;-54
2023/12/04 02:22:13;;;;;;;20.90;14.90;;;;;;;-1.19;91.67;100898.22;107364;280;104984;-53
2023/12/04 02:24:58;;;;;;;20.20;15.50;;;;;;;-1.21;91.77;100898.16;107204;280;154594;-56
2023/12/04 02:27:40;;;;;;;20.80;14.70;;;;;;;-1.22;91.57;100896.83;107431;280;95748;-56
2023/12/04 02:30:27;;;;;;;22.10;15.40;;;;;;;-1.24;91.39;100896.63;107224;280;154911;-50
2023/12/04 02:33:08;;;;;;;18.90;13.20;;;;;;;-1.29;91.32;100902.27;107346;280;119569;-51
2023/12/04 02:35:44;;;;;;;18.60;13.70;;;;;;;-1.35;91.29;100913.99;107262;280;155180;-51
2023/12/04 02:38:21;;;;;;;20.80;14.40;;;;;;;-1.41;91.27;100907.45;107381;280;114544;-51
2023/12/04 02:40:56;;;;;;;22.20;14.90;;;;;;;-1.41;91.24;100909.92;107388;280;96431;-55
2023/12/04 02:43:34;;;;;;;20.40;13.70;;;;;;;-1.41;91.18;100911.02;107282;280;155003;-54
2023/12/04 02:46:10;;;;;;;20.80;14.10;;;;;;;-1.45;91.15;100909.91;107378;280;120237;-50
2023/12/04 02:48:49;;;;;;;19.20;13.10;;;;;;;-1.44;91.14;100906.96;107272;280;154324;-52
2023/12/04 02:51:32;;;;;;;18.20;13.40;;;;;;;-1.43;91.03;100909.39;107390;280;114508;-51
2023/12/04 02:54:09;;;;;;;21.80;14.30;;;;;;;-1.46;91.05;100912.25;107208;280;154516;-52
2023/12/04 02:56:51;;;;;;;20.20;13.70;;;;;;;-1.47;90.87;100914.27;107356;280;96744;-52
2023/12/04 02:59:36;;;;;;;19.20;13.10;;;;;;;-1.50;90.75;100922.96;107213;280;155162;-51
2023/12/04 03:02:17;;;;;;;20.80;13.30;;;;;;;-1.52;90.78;100919.20;107377;280;105340;-50
2023/12/04 03:04:55;;;;;;;18.90;12.90;;;;;;;-1.57;90.86;100921.98;107362;280;113970;-49
2023/12/04 03:07:41;;;;;;;18.40;11.40;;;;;;;-1.59;90.85;100921.56;107258;280;155703;-51
2023/12/04 03:10:21;;;;;;;18.20;11.90;;;;;;;-1.61;90.84;100924.36;107381;280;96909;-55
2023/12/04 03:12:59;;;;;;;16.90;11.70;;;;;;;-1.62;90.77;100926.23;107237;280;154875;-56
2023/12/04 03:15:39;;;;;;;17.30;12.10;;;;;;;-1.64;90.85;100925.96;107359;280;106527;-50
2023/12/04 03:18:16;;;;;;;17.00;11.30;;;;;;;-1.62;90.90;100926.77;107199;280;154381;-50
2023/12/04 03:20:59;;;;;;;16.70;12.80;;;;;;;-1.62;90.82;100930.61;107406;280;93104;-51
2023/12/04 03:23:39;;;;;;;15.60;11.80;;;;;;;-1.61;90.63;100936.21;107249;280;154177;-53
2023/12/04 03:26:20;;;;;;;18.40;12.70;;;;;;;-1.66;90.60;100934.73;107341;280;120764;-54
2023/12/04 03:28:57;;;;;;;17.50;12.20;;;;;;;-1.71;90.77;100938.23;107387;280;105574;-53
2023/12/04 03:31:43;;;;;;;20.30;13.70;;;;;;;-1.74;90.72;100943.56;107236;280;156224;-54
2023/12/04 03:34:25;;;;;;;18.20;12.90;;;;;;;-1.75;90.80;100947.54;107374;280;95751;-51
2023/12/04 03:37:06;;;;;;;17.80;13.20;;;;;;;-1.74;90.77;100945.36;107258;280;155059;-51
2023/12/04 03:39:54;;;;;;;21.40;13.20;;;;;;;-1.74;90.86;100946.60;107370;280;121094;-53
2023/12/04 03:42:35;;;;;;;21.70;14.60;;;;;;;-1.67;90.68;100948.23;107278;280;156265;-53
2023/12/04 03:45:18;;;;;;;20.30;13.10;;;;;;;-1.66;90.77;100951.03;107348;280;114110;-53
2023/12/04 03:47:53;;;;;;;19.90;14.00;;;;;;;-1.67;90.73;100956.88;107259;280;154809;-54
2023/12/04 03:50:30;;;;;;;;;;;;;;;-1.68;90.75;100953.98;107458;280;97783;-53
2023/12/04 03:53:05;;;;;;;22.30;14.40;;;;;;;-1.71;90.67;100958.36;107253;280;120166;-53
2023/12/04 03:55:39;;;;;;;;;;;;;;;-1.73;90.52;100961.48;107202;280;154240;-50
2023/12/04 03:58:17;;;;;;;22.50;15.60;;;;;;;-1.79;90.72;100959.21;107339;281;115262;-52
2023/12/04 04:00:52;;;;;;;22.80;15.70;;;;;;;-1.80;90.71;100961.23;107169;282;156565;-54
2023/12/04 04:03:33;;;;;;;21.70;14.60;;;;;;;-1.81;90.74;100963.05;107286;282;99155;-53
2023/12/04 04:06:13;;;;;;;22.00;16.00;;;;;;;-1.81;90.66;100965.84;107187;281;155042;-53
2023/12/04 04:08:54;;;;;;;22.40;15.60;;;;;;;-1.78;90.63;100965.17;107339;281;105337;-51
2023/12/04 04:11:36;;;;;;;20.90;14.90;;;;;;;-1.80;90.62;100963.36;107258;281;156594;-50
2023/12/04 04:14:17;;;;;;;22.90;16.00;;;;;;;-1.77;90.57;100965.64;107240;281;94136;-52
2023/12/04 04:16:55;;;;;;;23.30;15.50;;;;;;;-1.78;90.57;100966.08;107378;281;96759;-51
2023/12/04 04:19:39;;;;;;;22.90;16.10;;;;;;;-1.78;90.49;100965.86;107129;282;154440;-51
2023/12/04 04:22:24;;;;;;;22.80;15.80;;;;;;;-1.79;90.48;100965.23;107354;281;105370;-50
2023/12/04 04:25:09;;;;;;;23.80;15.70;;;;;;;-1.81;90.39;100964.62;107101;281;156486;-57
2023/12/04 04:27:47;;;;;;;24.10;15.90;;;;;;;-1.85;90.48;100961.52;107363;282;95742;-56
2023/12/04 04:30:22;;;;;;;24.10;16.30;;;;;;;-1.85;90.36;100965.27;106492;281;793142;-53
2023/12/04 04:32:58;;;;;;;24.50;16.30;;;;;;;-1.90;90.45;100964.52;107291;282;120540;-54
2023/12/04 04:35:35;;;;;;;24.90;16.80;;;;;;;-1.89;90.38;100964.63;107205;282;157078;-54
2023/12/04 04:38:19;;;;;;;25.50;16.30;;;;;;;-1.91;90.37;100962.63;107250;281;114948;-54
2023/12/04 04:40:59;;;;;;;26.60;17.20;;;;;;;-1.91;90.39;100965.45;107302;281;95220;-54
2023/12/04 04:43:47;;;;;;;27.60;16.70;;;;;;;-1.88;90.25;100969.67;107245;281;154817;-56
2023/12/04 04:46:28;;;;;;;23.30;15.90;;;;;;;-1.88;90.23;100974.96;107331;281;121192;-56
2023/12/04 04:49:06;;;;;;;23.90;16.20;;;;;;;-1.85;90.19;100974.80;107171;281;155705;-54
2023/12/04 04:51:48;;;;;;;25.30;16.80;;;;;;;-1.90;90.25;100974.61;107339;281;114149;-54
2023/12/04 04:54:33;;;;;;;25.30;16.90;;;;;;;-1.93;90.24;100978.84;107223;282;155675;-51
2023/12/04 04:57:18;;;;;;;26.90;17.50;;;;;;;-1.96;90.29;100979.75;107354;281;98445;-52
2023/12/04 05:00:00;;;;;;;25.40;16.70;;;;;;;-1.92;90.11;100976.65;107267;282;155357;-56
2023/12/04 05:02:36;;;;;;;27.50;18.50;;;;;;;-1.93;90.03;100977.06;107367;281;106093;-57
2023/12/04 05:05:12;;;;;;;23.80;16.60;;;;;;;-1.95;90.10;100975.98;107322;281;114175;-56
2023/12/04 05:07:49;;;;;;;25.00;17.50;;;;;;;-1.96;90.21;100981.11;107185;281;155923;-56
2023/12/04 05:10:23;;;;;;;25.30;16.90;;;;;;;-1.97;90.25;100980.16;107397;281;96610;-51
2023/12/04 05:13:02;;;;;;;;;;;;;;;-1.98;90.08;100983.70;107239;281;156264;-51
2023/12/04 05:15:50;;;;;;;26.00;18.10;;;;;;;-1.98;90.15;100987.46;107348;281;105733;-55
2023/12/04 05:18:28;;;;;;;28.60;17.70;;;;;;;-1.96;90.16;100991.91;107185;281;154725;-56
2023/12/04 05:21:18;;;;;;;23.90;17.10;;;;;;;-1.96;90.01;100992.25;107307;281;93021;-56
2023/12/04 05:23:59;;;;;;;23.00;16.60;;;;;;;-2.00;90.02;100992.52;107176;282;154631;-52
2023/12/04 05:26:35;;;;;;;25.00;16.70;;;;;;;-2.07;90.00;100996.29;107330;281;119862;-52
2023/12/04 05:29:14;;;;;;;23.70;16.80;;;;;;;-2.07;90.06;100997.05;107391;281;104712;-51
2023/12/04 05:31:52;;;;;;;25.30;17.00;;;;;;;-2.10;89.98;100995.27;107202;281;154886;-51
2023/12/04 05:34:31;;;;;;;25.90;16.80;;;;;;;-2.09;89.99;100993.30;107365;281;95656;-57
2023/12/04 05:37:10;;;;;;;24.90;17.10;;;;;;;-2.11;89.78;100992.53;107220;281;154939;-56
2023/12/04 05:39:49;;;;;;;23.90;16.00;;;;;;;-2.12;89.74;100998.05;107352;281;121429;-51
2023/12/04 05:42:28;;;;;;;24.40;16.20;;;;;;;-2.16;89.85;100998.83;107233;281;155531;-52
2023/12/04 05:45:03;;;;;;;27.50;16.70;;;;;;;-2.16;89.89;100997.04;107320;281;114027;-52
2023/12/04 05:47:46;;;;;;;26.30;17.00;;;;;;;-2.19;90.01;100997.57;107276;281;155454;-52
2023/12/04 05:50:34;;;;;;;24.70;16.50;;;;;;;-2.15;89.96;101001.21;107366;281;97203;-55
2023/12/04 05:53:13;;;;;;;25.50;17.60;;;;;;;-2.19;90.01;101003.73;107364;281;121343;-56
2023/12/04 05:55:56;;;;;;;24.00;15.80;;;;;;;-2.18;89.96;101006.14;107109;282;154985;-53
2023/12/04 05:58:36;;;;;;;26.20;17.30;;;;;;;-2.20;89.95;101011.73;107175;282;114264;-54
2023/12/04 06:01:20;;;;;;;25.90;17.30;;;;;;;-2.18;89.94;101011.83;107138;282;155594;-50
2023/12/04 06:03:59;;;;;;;25.90;16.80;;;;;;;-2.18;89.77;101013.03;107376;281;97272;-53
2023/12/04 06:06:39;;;;;;;26.30;16.70;;;;;;;-2.22;89.78;101014.54;107252;281;154726;-54
2023/12/04 06:09:23;;;;;;;24.80;16.80;;;;;;;-2.28;89.91;101012.65;107339;281;105717;-51
2023/12/04 06:12:07;;;;;;;26.10;18.10;;;;;;;-2.28;89.97;101014.40;107182;282;155323;-50
2023/12/04 06:14:48;;;;;;;27.60;16.80;;;;;;;-2.22;89.85;101017.03;107321;282;96060;-53
2023/12/04 06:17:31;;;;;;;26.20;17.40;;;;;;;-2.20;89.89;101021.27;107329;281;96841;-53
2023/12/04 06:20:11;;;;;;;27.10;17.40;;;;;;;-2.16;89.94;101020.84;107276;282;120674;-55
2023/12/04 06:22:48;;;;;;;26.50;18.10;;;;;;;-2.13;89.94;101026.14;107369;281;105651;-54
2023/12/04 06:25:29;;;;;;;26.40;18.50;;;;;;;-2.13;89.86;101022.99;107195;282;154464;-56
2023/12/04 06:28:07;;;;;;;29.80;18.90;;;;;;;-2.15;89.99;101021.49;107323;281;94321;-56
2023/12/04 06:30:45;;;;;;;28.60;18.00;;;;;;;-2.17;90.00;101019.36;107153;281;155186;-52
2023/12/04 06:33:23;;;;;;;30.70;18.30;;;;;;;-2.19;90.07;101022.16;107253;281;120152;-52
2023/12/04 06:36:03;;;;;;;28.80;18.00;;;;;;;-2.18;89.82;101025.05;107264;282;156440;-51
2023/12/04 06:38:47;;;;;;;29.10;18.30;;;;;;;-2.24;90.03;101028.07;107333;281;114556;-50
2023/12/04 06:41:24;;;;;;;;;;;;;;;-2.27;89.99;101029.66;107328;282;95899;-51
2023/12/04 06:44:00;;;;;;;27.90;18.40;;;;;;;-2.24;90.06;101027.52;107274;281;96092;-52
2023/12/04 06:46:49;;;;;;;30.20;19.10;;;;;;;-2.20;90.08;101026.23;107350;281;119680;-52
2023/12/04 06:49:26;;;;;;;26.40;18.20;;;;;;;-2.17;90.10;101025.00;107140;282;154954;-53
2023/12/04 06:52:06;;;;;;;28.70;19.10;;;;;;;-2.12;90.02;101029.41;107357;282;114693;-52
2023/12/04 06:54:57;;;;;;;27.70;18.40;;;;;;;-2.14;90.09;101030.79;107227;282;154471;-56
2023/12/04 06:57:41;;;;;;;29.00;19.20;;;;;;;-2.11;90.14;101030.80;107377;281;96620;-56
2023/12/04 07:00:20;;;;;;;31.60;19.60;;;;;;;-2.05;89.97;101025.10;107204;281;154215;-53
2023/12/04 07:03:02;;;;;;;28.80;19.10;;;;;;;-2.03;89.78;101029.42;107344;281;104678;-53
2023/12/04 07:05:42;;;;;;;30.30;19.30;;;;;;;-2.08;89.91;101029.02;107153;281;155347;-51
2023/12/04 07:08:23;;;;;;;32.50;20.30;;;;;;;-2.05;89.77;101028.67;107305;282;96044;-51
2023/12/04 07:10:58;;;;;;;30.00;20.30;;;;;;;-2.05;89.72;101027.58;107359;281;98343;-53
2023/12/04 07:13:39;;;;;;;30.50;19.60;;;;;;;-2.02;89.83;101026.90;107204;282;156073;-52
2023/12/04 07:16:18;;;;;;;34.50;20.80;;;;;;;-2.03;89.76;101027.97;107362;282;103550;-52
2023/12/04 07:19:02;;;;;;;33.70;21.40;;;;;;;-1.96;89.69;101033.58;107221;281;154420;-57
2023/12/04 07:21:42;;;;;;;33.50;20.60;;;;;;;-1.94;89.64;101033.08;107339;281;93212;-57
2023/12/04 07:24:26;;;;;;;34.00;19.60;;;;;;;-1.98;89.82;101039.69;107210;281;154199;-54
2023/12/04 07:27:06;;;;;;;35.50;21.80;;;;;;;-1.96;89.82;101032.34;107351;281;121106;-55
2023/12/04 07:29:42;;;;;;;38.60;22.50;;;;;;;-1.94;89.65;101039.23;107248;282;156549;-53
2023/12/04 07:32:23;;;;;;;35.20;21.80;;;;;;;-1.95;89.76;101040.55;107350;281;114187;-52
2023/12/04 07:35:06;;;;;;;33.70;20.80;;;;;;;-1.94;89.66;101036.23;107375;281;95222;-51
2023/12/04 07:37:40;;;;;;;35.10;20.60;;;;;;;-1.89;89.55;101039.62;107272;282;155026;-51
2023/12/04 07:40:17;;;;;;;34.70;21.70;;;;;;;-1.87;89.62;101046.73;107214;282;119971;-54
2023/12/04 07:42:56;;;;;;;33.90;22.30;;;;;;;-1.81;89.54;101043.92;107236;281;156054;-54
2023/12/04 07:45:39;;;;;;;34.80;22.50;;;;;;;-1.81;89.73;101042.69;107362;282;114311;-55
2023/12/04 07:48:13;;;;;;;34.80;21.90;;;;;;;-1.81;89.72;101043.39;107185;281;155770;-56
2023/12/04 07:50:55;;;;;;;34.10;21.60;;;;;;;-1.78;89.73;101044.63;107398;281;97418;-52
2023/12/04 07:53:34;;;;;;;33.90;21.20;;;;;;;-1.72;89.49;101047.98;107201;281;156283;-52
2023/12/04 07:56:13;;;;;;;35.20;22.00;;;;;;;-1.73;89.49;101044.88;107360;281;104785;-51
2023/12/04 07:58:55;;;;;;;35.60;19.90;;;;;;;-1.72;89.63;101046.55;107335;281;114559;-56
2023/12/04 08:01:39;;;;;;;33.80;21.60;;;;;;;-1.65;89.64;101048.40;107165;281;156448;-56
2023/12/04 08:04:23;;;;;;;31.80;20.10;;;;;;;-1.53;89.46;101047.29;107383;281;96550;-53
2023/12/04 08:06:58;;;;;;;34.80;21.60;;;;;;;-1.52;89.49;101052.50;107244;282;154546;-53
2023/12/04 08:09:38;;;;;;;36.40;21.90;;;;;;;-1.50;89.32;101059.09;107380;282;105538;-56
2023/12/04 08:12:14;;;;;;;34.10;22.50;;;;;;;-1.50;89.27;101061.59;107158;282;154481;-57
2023/12/04 08:14:49;;;;;;;33.90;21.20;;;;;;;-1.48;88.98;101060.89;107379;281;93439;-57
2023/12/04 08:17:28;;;;;;;35.00;20.90;;;;;;;-1.45;88.99;101065.83;107324;281;98484;-56
2023/12/04 08:20:06;;;;;;;32.60;20.70;;;;;;;-1.47;89.11;101065.23;107265;282;119846;-56
2023/12/04 08:22:43;;;;;;;31.50;20.30;;;;;;;-1.48;89.16;101066.89;107396;281;103748;-56
2023/12/04 08:25:26;;;;;;;34.00;20.10;;;;;;;-1.46;89.10;101063.81;107134;282;154951;-52
2023/12/04 08:28:08;;;;;;;33.20;19.50;;;;;;;-1.45;89.09;101068.15;107384;281;95633;-53
2023/12/04 08:30:47;;;;;;;33.00;19.10;;;;;;;-1.51;88.94;101070.27;107216;281;156190;-53
2023/12/04 08:33:21;;;;;;;32.20;19.80;;;;;;;-1.54;89.01;101069.76;107370;281;119403;-53
2023/12/04 08:36:04;;;;;;;32.50;20.90;;;;;;;-1.48;89.15;101065.66;107252;281;154418;-52
2023/12/04 08:38:50;;;;;;;31.40;19.60;;;;;;;-1.43;89.06;101072.05;107355;281;114636;-54
2023/12/04 08:41:29;;;;;;;36.00;21.20;;;;;;;-1.40;89.02;101073.48;107336;281;92599;-54
2023/12/04 08:44:05;;;;;;;33.60;19.80;;;;;;;-1.38;89.06;101073.52;107190;281;98246;-52
2023/12/04 08:46:45;;;;;;;37.60;21.90;;;;;;;-1.40;89.08;101082.99;107420;281;119178;-53
2023/12/04 08:49:29;;;;;;;36.20;20.50;;;;;;;-1.39;89.07;101083.63;107149;281;156328;-55
2023/12/04 08:52:06;;;;;;;35.10;21.30;;;;;;;-1.35;89.04;101089.92;107322;281;114681;-56
2023/12/04 08:54:47;;;;;;;33.00;21.20;;;;;;;-1.33;89.02;101091.92;107134;281;156190;-52
2023/12/04 08:57:30;;;;;;;34.50;20.90;;;;;;;-1.34;88.92;101085.08;107272;281;97131;-52
2023/12/04 09:00:09;;;;;;;36.70;21.70;;;;;;;-1.31;88.85;101085.24;107159;281;154721;-56
2023/12/04 09:02:48;;;;;;;34.80;22.60;;;;;;;-1.32;88.78;101085.29;107302;282;104064;-56
2023/12/04 09:05:30;;;;;;;36.30;21.80;;;;;;;-1.24;88.83;101090.98;107337;281;115297;-54
2023/12/04 09:08:08;;;;;;;;;;;;;;;-1.17;88.72;101098.13;107273;282;93358;-54
2023/12/04 09:10:43;;;;;;;35.90;22.00;;;;;;;-1.12;88.59;101100.09;107359;282;97859;-53
2023/12/04 09:13:20;;;;;;;32.70;21.00;;;;;;;-1.06;88.51;101099.89;107141;282;154325;-52
2023/12/04 09:16:00;;;;;;;30.70;19.70;;;;;;;-1.10;88.57;101096.64;107366;281;105977;-52
2023/12/04 09:18:37;;;;;;;38.00;22.00;;;;;;;-1.13;88.46;101091.16;107199;281;156260;-53
2023/12/04 09:21:16;;;;;;;37.60;22.60;;;;;;;-1.12;88.44;101087.71;107293;281;95723;-53
2023/12/04 09:23:56;;;;;;;33.40;20.60;;;;;;;-1.07;88.33;101087.98;107263;281;155079;-52
2023/12/04 09:26:30;;;;;;;35.70;22.00;;;;;;;-1.12;88.28;101093.05;107325;281;120412;-52
2023/12/04 09:29:11;;;;;;;37.20;21.40;;;;;;;-1.07;88.40;101093.23;107373;281;105163;-51
2023/12/04 09:31:53;;;;;;;36.80;23.30;;;;;;;-1.08;88.37;101094.93;107166;281;154361;-51
2023/12/04 09:34:37;;;;;;;37.30;22.90;;;;;;;-1.02;88.25;101089.04;107370;281;92571;-53
2023/12/04 09:37:14;;;;;;;39.10;23.40;;;;;;;-1.03;88.28;101087.87;107160;281;155577;-52
2023/12/04 09:39:51;;;;;;;34.80;21.80;;;;;;;-1.03;88.07;101086.46;107354;281;121050;-53
2023/12/04 09:42:28;;;;;;;37.10;21.80;;;;;;;-1.03;88.00;101086.80;107195;281;155905;-53
2023/12/04 09:45:09;;;;;;;36.30;22.00;;;;;;;-1.04;88.10;101085.45;107290;281;112703;-51
2023/12/04 09:47:45;;;;;;;34.50;21.50;;;;;;;-1.03;88.19;101088.02;107202;281;156323;-51
2023/12/04 09:50:23;;;;;;;31.10;20.30;;;;;;;-0.97;87.87;101087.10;107360;281;98133;-53
2023/12/04 09:53:01;;;;;;;31.50;19.90;;;;;;;-0.96;87.50;101085.45;107377;281;119804;-52
2023/12/04 09:55:36;;;;;;;38.20;22.00;;;;;;;-0.97;87.54;101080.92;107211;279;155641;-54
2023/12/04 09:58:15;;;;;;;32.40;20.30;;;;;;;-0.96;87.17;101080.14;107355;281;113764;-54
2023/12/04 10:01:01;;;;;;;35.50;20.10;;;;;;;-0.96;87.03;101079.29;107201;281;155254;-54
2023/12/04 10:10:42;;;;;;;35.30;20.70;;;;;;;-0.87;87.53;101079.75;107568;277;100280;-54
2023/12/04 10:13:19;;;;;;;;;;;;;;;-0.85;87.47;101080.84;107214;279;154913;-55
2023/12/04 10:16:00;;;;;;;34.00;20.80;;;;;;;-0.81;87.45;101074.73;107352;281;94420;-51
2023/12/04 10:18:35;;;;;;;35.00;21.80;;;;;;;-0.84;87.44;101077.24;107236;281;155194;-50
2023/12/04 10:21:12;;;;;;;36.80;23.00;;;;;;;-0.78;87.52;101078.77;107393;280;120972;-56
2023/12/04 10:23:46;;;;;;;37.90;24.70;;;;;;;-0.73;87.55;101076.10;107281;280;154607;-56
2023/12/04 10:26:25;;;;;;;40.90;23.90;;;;;;;-0.68;87.55;101073.34;107353;281;114332;-51
2023/12/04 10:29:06;;;;;;;39.20;23.00;;;;;;;-0.69;87.33;101078.33;107366;281;93530;-51
2023/12/04 10:31:42;;;;;;;40.30;24.10;;;;;;;-0.64;87.29;101068.61;107183;281;154079;-53
2023/12/04 10:34:25;;;;;;;44.40;25.70;;;;;;;-0.59;87.37;101068.85;107328;281;120277;-52
2023/12/04 10:44:25;;;;;;;38.70;21.70;;;;;;;-0.29;87.22;101057.41;107454;278;96362;-53
2023/12/04 10:47:04;;;;;;;37.60;22.30;;;;;;;-0.14;87.29;101057.78;107372;280;97948;-51
2023/12/04 10:49:44;;;;;;;35.10;22.80;;;;;;;0.01;87.03;101065.06;107271;281;154111;-53
2023/12/04 10:52:22;;;;;;;38.90;22.80;;;;;;;0.16;86.56;101067.19;107384;281;105086;-57
2023/12/04 10:54:58;;;;;;;40.60;23.90;;;;;;;0.27;86.58;101064.53;107467;277;113628;-57
2023/12/04 11:01:03;;;;;;;35.90;20.90;;;;;;;0.48;86.20;101066.50;107357;278;155095;-51
2023/12/04 11:03:46;;;;;;;36.20;21.20;;;;;;;0.52;85.42;101068.19;107284;281;120518;-51
2023/12/04 11:06:30;;;;;;;35.40;21.30;;;;;;;0.42;84.11;101063.73;107185;281;156085;-51
2023/12/04 11:12:03;;;;;;;31.30;19.50;;;;;;;0.39;84.53;101062.90;107347;275;96234;-53
2023/12/04 11:14:48;;;;;;;34.40;20.50;;;;;;;0.37;84.33;101065.00;107344;281;97717;-51
2023/12/04 11:21:02;;;;;;;32.10;19.50;;;;;;;0.38;84.24;101065.13;107453;280;104223;-51
2023/12/04 11:23:45;;;;;;;31.10;19.60;;;;;;;0.40;84.20;101064.42;107353;280;114045;-52
2023/12/04 11:26:31;;;;;;;32.50;20.20;;;;;;;0.35;84.10;101062.83;107200;280;154371;-53
2023/12/04 11:32:21;;;;;;;34.70;20.00;;;;;;;0.23;84.19;101065.67;107355;278;155319;-51
2023/12/04 11:35:02;;;;;;;33.10;20.10;;;;;;;0.15;84.14;101067.13;107388;281;106949;-51
2023/12/04 20:58:09;;;;;;;74.70;37.10;;;;;;;-6.78;92.91;100947.66;105288;305;691693;-55
2023/12/04 21:00:41;;;;;;;103.70;49.80;;;;;;;-6.79;92.97;100949.94;106541;288;156084;-56
2023/12/04 21:03:18;;;;;;;103.70;49.10;;;;;;;-6.75;93.06;100951.35;106773;290;97321;-53
2023/12/04 21:05:52;;;;;;;104.30;51.90;;;;;;;-6.70;93.30;100949.02;107037;277;155762;-52
2023/12/04 21:08:27;;;;;;;104.10;50.10;;;;;;;-6.62;93.36;100950.78;107041;285;102981;-50
2023/12/04 21:11:08;;;;;;;97.70;47.80;;;;;;;-6.58;93.17;100950.79;106432;284;656153;-51
2023/12/04 21:13:48;;;;;;;92.90;47.40;;;;;;;-6.53;93.16;100952.84;107069;284;95834;-49
2023/12/04 21:16:25;;;;;;;84.20;44.50;;;;;;;-6.52;93.06;100950.34;107076;284;96737;-49
2023/12/04 21:19:10;;;;;;;73.60;38.50;;;;;;;-6.49;92.99;100948.64;107000;284;155513;-51
2023/12/04 21:21:47;;;;;;;78.80;39.10;;;;;;;-6.50;92.89;100942.20;107122;283;104844;-52
2023/12/04 21:24:31;;;;;;;70.20;37.20;;;;;;;-6.48;92.78;100941.91;106920;284;155676;-52
2023/12/04 21:27:15;;;;;;;67.10;37.20;;;;;;;-6.49;92.62;100939.48;107141;283;96703;-53
2023/12/04 21:29:55;;;;;;;66.70;34.80;;;;;;;-6.47;92.60;100941.69;107008;283;156208;-52
2023/12/04 21:32:34;;;;;;;58.80;32.20;;;;;;;-6.44;92.58;100937.20;107097;283;117898;-51
2023/12/04 21:35:07;;;;;;;63.70;32.80;;;;;;;-6.44;92.45;100935.44;107140;282;158729;-51
2023/12/04 21:37:41;;;;;;;61.80;32.80;;;;;;;-6.45;92.28;100933.23;107321;282;115715;-55
2023/12/04 21:40:15;;;;;;;66.90;34.40;;;;;;;-6.51;92.12;100934.55;107364;281;94617;-55
2023/12/04 21:42:48;;;;;;;63.70;33.50;;;;;;;-6.59;91.83;100931.71;107256;281;155612;-56
2023/12/04 21:45:29;;;;;;;66.80;33.20;;;;;;;-6.66;91.66;100928.34;107380;277;117319;-57
2023/12/04 21:48:11;;;;;;;74.70;35.80;;;;;;;-6.71;91.44;100924.91;107246;281;154854;-56
2023/12/04 21:50:49;;;;;;;71.00;35.70;;;;;;;-6.76;91.52;100923.72;107443;280;112857;-56
2023/12/04 21:53:28;;;;;;;75.60;41.30;;;;;;;-6.74;91.57;100924.52;107218;280;155895;-56
2023/12/04 21:56:02;;;;;;;106.70;51.30;;;;;;;-6.74;91.48;100925.23;107433;280;96964;-52